createdAt,value
2023-05-03T00:01:22.782Z,100975.88
2023-05-03T00:03:54.967Z,100969.47
2023-05-03T00:06:23.699Z,100969.47
2023-05-03T00:08:52.163Z,100976.47
2023-05-03T00:11:21.332Z,100975.31
2023-05-03T00:13:49.926Z,100975.31
2023-05-03T00:16:18.402Z,100973.97
2023-05-03T00:18:49.138Z,100985.69
2023-05-03T00:21:19.376Z,100980.22
2023-05-03T00:23:47.921Z,100988.19
2023-05-03T00:26:16.416Z,100994.09
2023-05-03T00:28:45.429Z,100994.38
2023-05-03T00:31:14.340Z,100992.84
2023-05-03T00:33:43.551Z,100991.59
2023-05-03T00:36:13.815Z,100993.94
2023-05-03T00:38:44.318Z,100980.41
2023-05-03T00:41:13.843Z,100990.19
2023-05-03T00:43:42.239Z,100992.69
2023-05-03T00:46:17.215Z,100993.56
2023-05-03T00:48:46.656Z,100991.31
2023-05-03T00:51:16.940Z,100991.59
2023-05-03T00:53:47.054Z,101000.22
2023-05-03T00:56:21.473Z,100994.91
2023-05-03T00:58:50.236Z,101004.53
2023-05-03T01:01:18.841Z,101007.69
2023-05-03T01:03:48.101Z,101003.81
2023-05-03T01:06:27.892Z,101012.72
2023-05-03T01:09:05.009Z,101013.28
2023-05-03T01:11:43.697Z,101011.88
2023-05-03T01:14:23.337Z,101017.44
2023-05-03T01:16:58.147Z,101017.88
2023-05-03T01:19:31.146Z,101010.50
2023-05-03T01:22:11.663Z,101023.94
2023-05-03T01:24:43.315Z,101022.47
2023-05-03T01:27:13.909Z,101023.88
2023-05-03T01:29:42.337Z,101026.72
2023-05-03T01:32:17.179Z,101020.44
2023-05-03T01:34:52.962Z,101023.53
2023-05-03T01:37:22.325Z,101032.03
2023-05-03T01:39:53.472Z,101029.50
2023-05-03T01:42:28.281Z,101024.91
2023-05-03T01:44:57.138Z,101029.03
2023-05-03T01:47:27.064Z,101032.81
2023-05-03T01:49:55.745Z,101033.66
2023-05-03T01:52:25.901Z,101039.53
2023-05-03T01:54:54.484Z,101041.94
2023-05-03T01:57:24.393Z,101037.69
2023-05-03T01:59:52.923Z,101037.69
2023-05-03T02:02:21.384Z,101027.72
2023-05-03T02:04:50.085Z,101047.53
2023-05-03T02:07:18.514Z,101052.81
2023-05-03T02:09:47.226Z,101040.53
2023-05-03T02:12:15.908Z,101043.56
2023-05-03T02:14:45.679Z,101051.84
2023-05-03T02:17:14.872Z,101043.84
2023-05-03T02:19:43.257Z,101053.69
2023-05-03T02:22:11.820Z,101058.63
2023-05-03T02:24:40.548Z,101049.59
2023-05-03T02:27:08.999Z,101053.22
2023-05-03T02:29:38.001Z,101053.94
2023-05-03T02:32:08.845Z,101055.44
2023-05-03T02:34:37.585Z,101048.97
2023-05-03T02:37:06.628Z,101056.09
2023-05-03T02:39:35.091Z,101047.50
2023-05-03T02:42:03.829Z,101053.13
2023-05-03T02:44:33.624Z,101065.59
2023-05-03T02:47:02.272Z,101047.81
2023-05-03T02:49:32.146Z,101056.22
2023-05-03T02:52:00.675Z,101061.22
2023-05-03T02:54:29.210Z,101074.06
2023-05-03T02:56:57.714Z,101070.13
2023-05-03T02:59:26.282Z,101055.38
2023-05-03T03:01:54.807Z,101074.13
2023-05-03T03:04:23.835Z,101067.19
2023-05-03T03:06:54.770Z,101065.06
2023-05-03T03:09:23.212Z,101064.16
2023-05-03T03:11:53.530Z,101074.53
2023-05-03T03:14:22.012Z,101069.34
2023-05-03T03:16:53.674Z,101065.00
2023-05-03T03:19:22.093Z,101072.22
2023-05-03T03:21:51.101Z,101079.41
2023-05-03T03:24:20.969Z,101079.94
2023-05-03T03:26:49.430Z,101079.84
2023-05-03T03:29:17.920Z,101080.59
2023-05-03T03:31:46.684Z,101081.84
2023-05-03T03:34:15.325Z,101085.50
2023-05-03T03:36:43.766Z,101085.28
2023-05-03T03:39:12.148Z,101082.38
2023-05-03T03:41:42.619Z,101081.44
2023-05-03T03:44:11.861Z,101077.31
2023-05-03T03:46:40.467Z,101079.25
2023-05-03T03:49:09.724Z,101078.53
2023-05-03T03:51:39.190Z,101093.19
2023-05-03T03:54:07.992Z,101093.09
2023-05-03T03:56:36.848Z,101089.59
2023-05-03T03:59:08.436Z,101084.78
2023-05-03T04:01:37.072Z,101094.66
2023-05-03T04:04:06.686Z,101097.28
2023-05-03T04:06:35.390Z,101104.25
2023-05-03T04:09:03.937Z,101105.47
2023-05-03T04:11:32.545Z,101105.69
2023-05-03T04:14:01.816Z,101102.22
2023-05-03T04:16:31.927Z,101106.78
2023-05-03T04:19:00.411Z,101110.50
2023-05-03T04:21:29.589Z,101108.56
2023-05-03T04:23:58.259Z,101117.47
2023-05-03T04:26:31.182Z,101121.22
2023-05-03T04:29:00.174Z,101124.81
2023-05-03T04:31:29.048Z,101124.19
2023-05-03T04:33:59.492Z,101123.72
2023-05-03T04:36:30.671Z,101129.22
2023-05-03T04:38:59.385Z,101128.09
2023-05-03T04:41:28.025Z,101138.06
2023-05-03T04:43:56.602Z,101138.19
2023-05-03T04:46:25.186Z,101143.81
2023-05-03T04:48:53.663Z,101145.78
2023-05-03T04:51:23.906Z,101140.47
2023-05-03T04:53:52.639Z,101139.50
2023-05-03T04:56:26.485Z,101148.88
2023-05-03T04:58:55.302Z,101159.47
2023-05-03T05:01:28.269Z,101157.53
2023-05-03T05:03:57.488Z,101159.22
2023-05-03T05:06:27.852Z,101147.22
2023-05-03T05:08:56.713Z,101160.94
2023-05-03T05:11:26.751Z,101159.47
2023-05-03T05:13:55.326Z,101162.22
2023-05-03T05:16:24.132Z,101159.81
2023-05-03T05:18:52.921Z,101163.88
2023-05-03T05:21:21.486Z,101167.38
2023-05-03T05:23:51.844Z,101175.44
2023-05-03T05:26:20.816Z,101181.84
2023-05-03T05:28:49.539Z,101181.38
2023-05-03T05:31:18.740Z,101165.66
2023-05-03T05:33:47.522Z,101184.03
2023-05-03T05:36:16.306Z,101184.78
2023-05-03T05:38:44.996Z,101195.13
2023-05-03T05:41:15.110Z,101182.28
2023-05-03T05:43:43.820Z,101196.44
2023-05-03T05:46:12.614Z,101197.50
2023-05-03T05:48:43.685Z,101189.34
2023-05-03T05:51:12.637Z,101208.34
2023-05-03T05:53:41.268Z,101214.13
2023-05-03T05:56:11.555Z,101215.94
2023-05-03T05:58:41.587Z,101220.13
2023-05-03T06:01:13.148Z,101215.34
2023-05-03T06:03:44.094Z,101222.78
2023-05-03T06:06:12.958Z,101217.25
2023-05-03T06:08:42.297Z,101223.88
2023-05-03T06:11:14.373Z,101223.75
2023-05-03T06:13:44.900Z,101237.69
2023-05-03T06:16:13.906Z,101229.03
2023-05-03T06:18:42.596Z,101223.28
2023-05-03T06:21:11.901Z,101227.25
2023-05-03T06:23:41.130Z,101228.25
2023-05-03T06:26:09.932Z,101240.69
2023-05-03T06:28:39.110Z,101239.97
2023-05-03T06:31:09.255Z,101245.72
2023-05-03T06:33:37.888Z,101249.19
2023-05-03T06:36:07.139Z,101241.84
2023-05-03T06:38:35.787Z,101243.63
2023-05-03T06:41:05.310Z,101240.50
2023-05-03T06:43:34.495Z,101244.59
2023-05-03T06:46:03.811Z,101234.59
2023-05-03T06:48:33.912Z,101257.22
2023-05-03T06:51:02.408Z,101247.09
2023-05-03T06:53:33.332Z,101257.31
2023-05-03T06:56:02.270Z,101254.75
2023-05-03T06:58:31.093Z,101258.13
2023-05-03T07:01:00.382Z,101264.28
2023-05-03T07:03:29.423Z,101249.22
2023-05-03T07:05:59.587Z,101248.94
2023-05-03T07:08:28.757Z,101253.00
2023-05-03T07:10:57.444Z,101260.66
2023-05-03T07:13:26.421Z,101258.47
2023-05-03T07:15:55.181Z,101254.38
2023-05-03T07:18:24.137Z,101252.63
2023-05-03T07:20:52.759Z,101258.31
2023-05-03T07:23:22.945Z,101261.91
2023-05-03T07:25:51.863Z,101247.69
2023-05-03T07:28:21.298Z,101250.34
2023-05-03T07:30:49.936Z,101250.44
2023-05-03T07:33:19.406Z,101228.41
2023-05-03T07:35:48.548Z,101244.50
2023-05-03T07:38:17.695Z,101249.91
2023-05-03T07:40:48.433Z,101236.19
2023-05-03T07:43:20.103Z,101252.03
2023-05-03T07:45:48.881Z,101252.72
2023-05-03T07:48:17.924Z,101249.81
2023-05-03T07:50:47.166Z,101249.81
2023-05-03T07:53:16.717Z,101230.41
2023-05-03T07:55:46.652Z,101245.56
2023-05-03T07:58:15.290Z,101245.41
2023-05-03T08:00:44.077Z,101240.56
2023-05-03T08:03:12.768Z,101243.25
2023-05-03T08:05:42.396Z,101236.97
2023-05-03T08:08:10.971Z,101235.56
2023-05-03T08:10:39.460Z,101234.88
2023-05-03T08:13:09.686Z,101218.34
2023-05-03T08:15:38.201Z,101225.19
2023-05-03T08:18:06.994Z,101244.41
2023-05-03T08:20:37.091Z,101227.75
2023-05-03T08:23:05.819Z,101236.56
2023-05-03T08:25:34.576Z,101248.59
2023-05-03T08:28:04.174Z,101246.50
2023-05-03T08:30:34.755Z,101246.78
2023-05-03T08:33:03.912Z,101247.63
2023-05-03T08:35:32.338Z,101250.56
2023-05-03T08:38:00.873Z,101250.28
2023-05-03T08:40:30.146Z,101254.06
2023-05-03T08:43:08.756Z,101259.34
2023-05-03T08:45:38.707Z,101253.03
2023-05-03T08:48:08.978Z,101252.59
2023-05-03T08:50:42.834Z,101247.47
2023-05-03T08:53:11.646Z,101250.44
2023-05-03T08:55:40.882Z,101243.41
2023-05-03T08:58:13.300Z,101251.97
2023-05-03T09:00:45.482Z,101250.81
2023-05-03T09:03:14.124Z,101252.84
2023-05-03T09:05:44.580Z,101248.06
2023-05-03T09:08:14.919Z,101252.31
2023-05-03T09:10:44.085Z,101251.00
2023-05-03T09:13:13.272Z,101256.31
2023-05-03T09:15:45.600Z,101254.53
2023-05-03T09:18:17.615Z,101244.22
2023-05-03T09:20:52.667Z,101260.38
2023-05-03T09:23:31.757Z,101255.41
2023-05-03T09:26:01.049Z,101246.38
2023-05-03T09:28:30.028Z,101248.25
2023-05-03T09:31:11.453Z,101255.28
2023-05-03T09:33:41.360Z,101255.19
2023-05-03T09:36:11.232Z,101259.72
2023-05-03T09:38:39.728Z,101252.41
2023-05-03T09:41:08.435Z,101258.50
2023-05-03T09:43:37.559Z,101257.28
2023-05-03T09:46:14.611Z,101249.66
2023-05-03T09:48:43.682Z,101249.03
2023-05-03T09:51:12.917Z,101250.94
2023-05-03T09:53:42.978Z,101251.84
2023-05-03T09:56:14.172Z,101257.34
2023-05-03T09:58:44.654Z,101247.03
2023-05-03T10:01:16.463Z,101251.31
2023-05-03T10:03:47.799Z,101249.31
2023-05-03T10:06:27.033Z,101240.13
2023-05-03T10:09:02.385Z,101246.50
2023-05-03T10:11:31.170Z,101240.75
2023-05-03T10:14:00.042Z,101234.78
2023-05-03T10:16:33.963Z,101240.69
2023-05-03T10:19:16.480Z,101240.75
2023-05-03T10:21:57.284Z,101238.41
2023-05-03T10:24:26.097Z,101233.94
2023-05-03T10:26:57.512Z,101241.00
2023-05-03T10:29:53.016Z,101249.94
2023-05-03T10:32:44.874Z,101243.09
2023-05-03T10:35:16.762Z,101237.56
2023-05-03T10:37:47.308Z,101229.03
2023-05-03T10:40:18.180Z,101238.75
2023-05-03T10:42:51.223Z,101235.72
2023-05-03T10:45:25.629Z,101246.56
2023-05-03T10:48:25.620Z,101235.22
2023-05-03T10:50:54.546Z,101243.09
2023-05-03T10:53:40.505Z,101235.56
2023-05-03T10:56:12.639Z,101243.19
2023-05-03T10:58:44.483Z,101242.84
2023-05-03T11:01:15.129Z,101229.38
2023-05-03T11:03:53.596Z,101242.34
2023-05-03T11:06:33.559Z,101239.41
2023-05-03T11:09:04.521Z,101233.88
2023-05-03T11:11:33.129Z,101229.03
2023-05-03T11:14:02.393Z,101226.88
2023-05-03T11:16:31.466Z,101238.34
2023-05-03T11:19:01.978Z,101228.59
2023-05-03T11:21:31.348Z,101230.22
2023-05-03T11:24:01.930Z,101237.88
2023-05-03T11:26:39.487Z,101231.19
2023-05-03T11:29:11.093Z,101226.31
2023-05-03T11:31:43.563Z,101227.28
2023-05-03T11:34:14.817Z,101238.00
2023-05-03T11:36:44.015Z,101230.19
2023-05-03T11:39:14.818Z,101232.22
2023-05-03T11:41:43.384Z,101224.84
2023-05-03T11:44:17.885Z,101220.53
2023-05-03T11:46:48.300Z,101237.38
2023-05-03T11:49:21.864Z,101234.94
2023-05-03T11:51:53.648Z,101228.41
2023-05-03T11:54:26.968Z,101236.88
2023-05-03T11:56:59.620Z,101236.84
2023-05-03T11:59:39.852Z,101227.38
2023-05-03T12:02:09.706Z,101227.81
2023-05-03T12:04:43.554Z,101226.28
2023-05-03T12:07:14.944Z,101233.41
2023-05-03T12:09:48.550Z,101229.63
2023-05-03T12:12:27.701Z,101240.09
2023-05-03T12:15:03.806Z,101232.03
2023-05-03T12:17:38.819Z,101229.25
2023-05-03T12:22:51.952Z,101229.16
2023-05-03T12:25:21.711Z,101226.19
2023-05-03T12:28:12.347Z,101214.34
2023-05-03T12:30:45.847Z,101219.81
2023-05-03T12:33:16.494Z,101225.38
2023-05-03T12:35:48.264Z,101222.75
2023-05-03T12:38:18.099Z,101215.69
2023-05-03T12:40:49.373Z,101216.09
2023-05-03T12:43:18.313Z,101215.19
2023-05-03T12:45:53.104Z,101215.97
2023-05-03T12:48:27.586Z,101209.03
2023-05-03T12:51:17.165Z,101205.41
2023-05-03T12:53:47.769Z,101195.22
2023-05-03T12:56:17.072Z,101197.47
2023-05-03T13:02:19.204Z,101178.13
2023-05-03T13:06:57.757Z,101195.38
2023-05-03T13:12:34.339Z,101191.91
2023-05-03T13:15:04.272Z,101191.66
2023-05-03T13:17:36.015Z,101185.19
2023-05-03T13:20:08.491Z,101186.59
2023-05-03T13:22:47.031Z,101188.34
2023-05-03T13:25:15.776Z,101173.34
2023-05-03T13:27:44.357Z,101177.47
2023-05-03T13:30:14.697Z,101187.28
2023-05-03T13:32:43.323Z,101172.22
2023-05-03T13:35:12.573Z,101175.94
2023-05-03T13:37:41.195Z,101165.94
2023-05-03T13:40:13.156Z,101155.28
2023-05-03T13:42:41.650Z,101161.38
2023-05-03T13:45:11.412Z,101161.91
2023-05-03T13:48:04.724Z,101149.69
2023-05-03T13:50:31.530Z,101154.78
2023-05-03T13:53:00.165Z,101147.31
2023-05-03T13:55:30.088Z,101150.13
2023-05-03T13:57:58.821Z,101147.31
2023-05-03T14:00:27.428Z,101148.28
2023-05-03T14:02:56.713Z,101143.75
2023-05-03T14:05:25.148Z,101149.91
2023-05-03T14:07:54.201Z,101146.44
2023-05-03T14:10:22.956Z,101137.78
2023-05-03T14:12:53.313Z,101142.66
2023-05-03T14:15:22.267Z,101133.75
2023-05-03T14:17:51.230Z,101137.97
2023-05-03T14:20:20.199Z,101135.53
2023-05-03T14:22:48.739Z,101139.63
2023-05-03T14:25:17.560Z,101137.16
2023-05-03T14:27:46.151Z,101140.72
2023-05-03T14:30:17.404Z,101139.25
2023-05-03T14:32:46.115Z,101131.41
2023-05-03T14:35:14.731Z,101135.66
2023-05-03T14:37:43.305Z,101134.16
2023-05-03T14:40:13.075Z,101132.09
2023-05-03T14:42:41.646Z,101132.38
2023-05-03T14:45:12.833Z,101129.84
2023-05-03T14:47:43.275Z,101143.22
2023-05-03T14:50:12.507Z,101136.53
2023-05-03T14:52:40.968Z,101140.41
2023-05-03T14:55:11.242Z,101140.63
2023-05-03T14:57:39.776Z,101145.97
2023-05-03T15:00:14.558Z,101128.34
2023-05-03T15:02:44.668Z,101131.91
2023-05-03T15:05:13.920Z,101138.91
2023-05-03T15:07:42.397Z,101144.66
2023-05-03T15:10:11.555Z,101147.22
2023-05-03T15:12:40.446Z,101142.94
2023-05-03T15:15:12.279Z,101149.13
2023-05-03T15:17:40.839Z,101137.06
2023-05-03T15:20:14.100Z,101145.16
2023-05-03T15:22:42.562Z,101143.09
2023-05-03T15:25:11.576Z,101140.72
2023-05-03T15:27:40.368Z,101136.44
2023-05-03T15:30:12.366Z,101137.19
2023-05-03T15:32:40.936Z,101135.28
2023-05-03T15:35:11.424Z,101138.38
2023-05-03T15:37:40.043Z,101132.19
2023-05-03T15:40:11.839Z,101137.41
2023-05-03T15:42:40.716Z,101129.94
2023-05-03T15:45:10.028Z,101126.50
2023-05-03T15:47:39.072Z,101131.44
2023-05-03T15:50:09.114Z,101142.59
2023-05-03T15:52:39.247Z,101132.34
2023-05-03T15:55:10.011Z,101141.22
2023-05-03T15:57:38.570Z,101140.28
2023-05-03T16:00:15.271Z,101141.31
2023-05-03T16:02:44.185Z,101143.38
2023-05-03T16:05:13.467Z,101140.94
2023-05-03T16:07:43.396Z,101144.91
2023-05-03T16:10:12.063Z,101124.91
2023-05-03T16:12:41.126Z,101143.88
2023-05-03T16:15:12.579Z,101142.97
2023-05-03T16:17:41.209Z,101139.19
2023-05-03T16:20:11.827Z,101140.41
2023-05-03T16:22:40.389Z,101144.31
2023-05-03T16:25:11.479Z,101141.44
2023-05-03T16:27:41.798Z,101132.38
2023-05-03T16:30:11.010Z,101131.91
2023-05-03T16:32:41.521Z,101135.38
2023-05-03T16:35:11.078Z,101141.75
2023-05-03T16:37:41.032Z,101135.63
2023-05-03T16:40:11.714Z,101128.88
2023-05-03T16:42:41.430Z,101141.94
2023-05-03T16:45:11.243Z,101139.84
2023-05-03T16:47:41.145Z,101126.41
2023-05-03T16:50:10.818Z,101135.69
2023-05-03T16:52:41.567Z,101134.84
2023-05-03T16:55:13.626Z,101139.88
2023-05-03T16:57:42.970Z,101141.28
2023-05-03T17:00:12.777Z,101136.72
2023-05-03T17:02:42.300Z,101129.75
2023-05-03T17:05:14.502Z,101135.22
2023-05-03T17:07:43.208Z,101127.97
2023-05-03T17:10:13.504Z,101126.41
2023-05-03T17:12:42.215Z,101135.28
2023-05-03T17:15:11.697Z,101140.50
2023-05-03T17:17:40.650Z,101140.66
2023-05-03T17:20:10.944Z,101140.22
2023-05-03T17:22:39.518Z,101136.03
2023-05-03T17:25:09.875Z,101142.59
2023-05-03T17:27:40.332Z,101139.81
2023-05-03T17:30:11.290Z,101144.34
2023-05-03T17:32:40.144Z,101142.84
2023-05-03T17:35:11.327Z,101140.34
2023-05-03T17:37:39.995Z,101143.75
2023-05-03T17:40:09.539Z,101132.44
2023-05-03T17:42:39.547Z,101136.84
2023-05-03T17:45:10.000Z,101128.75
2023-05-03T17:47:38.520Z,101132.66
2023-05-03T17:50:08.212Z,101136.72
2023-05-03T17:52:36.755Z,101132.53
2023-05-03T17:55:05.670Z,101137.44
2023-05-03T17:57:34.180Z,101139.47
2023-05-03T18:00:06.039Z,101136.66
2023-05-03T18:02:34.872Z,101133.19
2023-05-03T18:05:04.118Z,101141.91
2023-05-03T18:07:32.604Z,101142.41
2023-05-03T18:10:02.327Z,101141.28
2023-05-03T18:12:31.215Z,101139.31
2023-05-03T18:15:00.852Z,101146.03
2023-05-03T18:17:31.732Z,101151.94
2023-05-03T18:20:00.254Z,101150.75
2023-05-03T18:22:29.394Z,101148.13
2023-05-03T18:25:02.094Z,101147.50
2023-05-03T18:27:30.867Z,101155.78
2023-05-03T18:29:59.530Z,101153.59
2023-05-03T18:32:28.143Z,101161.00
2023-05-03T18:34:58.444Z,101150.97
2023-05-03T18:37:27.247Z,101153.84
2023-05-03T18:39:55.676Z,101146.81
2023-05-03T18:42:24.929Z,101165.91
2023-05-03T18:44:53.927Z,101156.41
2023-05-03T18:47:25.419Z,101164.59
2023-05-03T18:49:54.313Z,101153.41
2023-05-03T18:52:24.730Z,101165.75
2023-05-03T18:54:53.196Z,101161.38
2023-05-03T18:57:21.977Z,101166.56
2023-05-03T18:59:59.866Z,101169.41
2023-05-03T19:02:31.651Z,101170.69
2023-05-03T19:05:01.216Z,101160.47
2023-05-03T19:07:32.031Z,101171.50
2023-05-03T19:10:01.384Z,101164.44
2023-05-03T19:12:30.144Z,101162.75
2023-05-03T19:14:59.176Z,101166.22
2023-05-03T19:17:30.739Z,101173.38
2023-05-03T19:20:00.220Z,101184.00
2023-05-03T19:22:28.864Z,101166.59
2023-05-03T19:25:04.121Z,101177.72
2023-05-03T19:27:33.735Z,101176.31
2023-05-03T19:30:02.614Z,101166.06
2023-05-03T19:32:35.525Z,101169.66
2023-05-03T19:35:08.602Z,101173.34
2023-05-03T19:37:37.165Z,101188.00
2023-05-03T19:40:08.736Z,101191.22
2023-05-03T19:42:38.073Z,101184.09
2023-05-03T19:45:07.552Z,101183.00
2023-05-03T19:47:36.278Z,101191.59
2023-05-03T19:50:05.410Z,101184.81
2023-05-03T19:52:35.331Z,101183.91
2023-05-03T19:55:07.442Z,101186.03
2023-05-03T19:57:37.644Z,101176.56
2023-05-03T20:00:07.588Z,101185.56
2023-05-03T20:02:37.512Z,101172.44
2023-05-03T20:05:07.215Z,101179.75
2023-05-03T20:07:35.860Z,101185.69
2023-05-03T20:10:05.836Z,101169.22
2023-05-03T20:12:34.656Z,101170.38
2023-05-03T20:15:07.225Z,101175.72
2023-05-03T20:17:36.741Z,101155.88
2023-05-03T20:20:11.030Z,101159.81
2023-05-03T20:22:39.638Z,101175.56
2023-05-03T20:25:09.143Z,101176.25
2023-05-03T20:27:37.952Z,101170.44
2023-05-03T20:30:09.400Z,101174.22
2023-05-03T20:32:39.331Z,101179.44
2023-05-03T20:35:11.708Z,101177.47
2023-05-03T20:37:40.667Z,101172.16
2023-05-03T20:40:11.447Z,101170.63
2023-05-03T20:42:39.879Z,101163.78
2023-05-03T20:45:10.674Z,101175.41
2023-05-03T20:47:39.227Z,101176.50
2023-05-03T20:50:09.743Z,101181.41
2023-05-03T20:52:38.662Z,101181.84
2023-05-03T20:55:07.668Z,101177.91
2023-05-03T20:57:36.630Z,101178.47
2023-05-03T21:00:05.576Z,101177.91
2023-05-03T21:02:35.897Z,101174.09
2023-05-03T21:05:05.482Z,101176.44
2023-05-03T21:07:34.042Z,101170.00
2023-05-03T21:10:02.689Z,101160.75
2023-05-03T21:12:31.587Z,101166.31
2023-05-03T21:14:59.974Z,101159.88
2023-05-03T21:17:28.506Z,101167.41
2023-05-03T21:19:58.474Z,101161.66
2023-05-03T21:22:27.040Z,101166.66
2023-05-03T21:24:55.752Z,101169.31
2023-05-03T21:27:24.251Z,101163.81
2023-05-03T21:29:53.001Z,101153.03
2023-05-03T21:32:21.813Z,101155.50
2023-05-03T21:34:50.948Z,101153.50
2023-05-03T21:37:20.880Z,101154.84
2023-05-03T21:40:00.473Z,101153.19
2023-05-03T21:42:30.421Z,101163.22
2023-05-03T21:44:59.775Z,101157.03
2023-05-03T21:47:29.405Z,101161.75
2023-05-03T21:49:57.998Z,101159.50
2023-05-03T21:52:28.254Z,101159.75
2023-05-03T21:54:56.839Z,101161.06
2023-05-03T21:57:25.471Z,101159.66
2023-05-03T21:59:55.106Z,101163.06
2023-05-03T22:02:24.081Z,101175.16
2023-05-03T22:04:52.969Z,101165.94
2023-05-03T22:07:21.475Z,101160.53
2023-05-03T22:09:51.710Z,101161.19
2023-05-03T22:12:24.094Z,101156.50
2023-05-03T22:14:53.339Z,101157.03
2023-05-03T22:17:21.886Z,101163.53
2023-05-03T22:19:50.768Z,101166.69
2023-05-03T22:22:19.495Z,101166.22
2023-05-03T22:24:47.964Z,101154.31
2023-05-03T22:27:17.902Z,101159.28
2023-05-03T22:29:46.609Z,101159.53
2023-05-03T22:32:15.165Z,101153.88
2023-05-03T22:34:44.755Z,101155.94
2023-05-03T22:37:13.397Z,101151.00
2023-05-03T22:39:41.932Z,101155.72
2023-05-03T22:42:10.357Z,101148.28
2023-05-03T22:44:40.167Z,101145.25
2023-05-03T22:47:08.548Z,101155.50
2023-05-03T22:49:37.249Z,101148.78
2023-05-03T22:52:05.864Z,101155.38
2023-05-03T22:54:34.273Z,101151.53
2023-05-03T22:57:02.690Z,101158.03
2023-05-03T22:59:31.625Z,101150.44
2023-05-03T23:02:01.534Z,101155.25
2023-05-03T23:04:29.919Z,101152.81
2023-05-03T23:06:58.478Z,101146.22
2023-05-03T23:09:27.243Z,101152.59
2023-05-03T23:11:56.901Z,101154.66
2023-05-03T23:14:25.695Z,101153.31
2023-05-03T23:16:54.199Z,101144.78
2023-05-03T23:19:24.096Z,101152.00
2023-05-03T23:21:52.792Z,101149.69
2023-05-03T23:24:21.456Z,101137.91
2023-05-03T23:26:49.878Z,101133.94
2023-05-03T23:29:18.733Z,101136.94
2023-05-03T23:31:47.426Z,101137.41
2023-05-03T23:34:16.565Z,101139.56
2023-05-03T23:36:46.489Z,101138.00
2023-05-03T23:39:15.653Z,101128.97
2023-05-03T23:41:44.064Z,101131.84
2023-05-03T23:44:12.758Z,101136.50
2023-05-03T23:46:41.352Z,101128.94
2023-05-03T23:49:10.006Z,101134.44
2023-05-03T23:51:38.474Z,101121.47
2023-05-03T23:54:08.845Z,101126.25
2023-05-03T23:56:37.303Z,101121.44
2023-05-03T23:59:06.437Z,101120.22
